createdAt,value
2019-03-19T00:00:53.450Z,45.85
2019-03-19T00:03:27.991Z,44.05
2019-03-19T00:06:02.321Z,44.55
2019-03-19T00:08:36.762Z,44.73
2019-03-19T00:11:11.151Z,43.85
2019-03-19T00:13:45.669Z,43.25
2019-03-19T00:16:19.889Z,44.08
2019-03-19T00:18:54.128Z,43.23
2019-03-19T00:21:28.344Z,43.52
2019-03-19T00:24:02.511Z,43.87
2019-03-19T00:26:36.696Z,43.83
2019-03-19T00:29:10.921Z,43.40
2019-03-19T00:31:45.131Z,43.65
2019-03-19T00:34:19.367Z,44.73
2019-03-19T00:36:53.787Z,44.03
2019-03-19T00:39:27.991Z,43.87
2019-03-19T00:42:02.416Z,43.05
2019-03-19T00:44:36.616Z,43.55
2019-03-19T00:47:11.000Z,43.42
2019-03-19T00:49:45.049Z,44.18
2019-03-19T00:52:19.414Z,44.75
2019-03-19T00:54:53.657Z,43.60
2019-03-19T00:57:27.841Z,43.42
2019-03-19T01:00:02.151Z,43.75
2019-03-19T01:02:36.694Z,43.52
2019-03-19T01:05:11.185Z,43.90
2019-03-19T01:07:45.383Z,42.43
2019-03-19T01:10:19.574Z,42.90
2019-03-19T01:12:53.699Z,43.10
2019-03-19T01:15:28.188Z,44.03
2019-03-19T01:18:02.369Z,43.50
2019-03-19T01:20:36.489Z,43.63
2019-03-19T01:23:10.685Z,45.15
2019-03-19T01:25:55.167Z,44.93
2019-03-19T01:28:20.831Z,44.60
2019-03-19T01:30:55.116Z,45.08
2019-03-19T01:33:29.528Z,44.45
2019-03-19T01:36:03.645Z,46.50
2019-03-19T01:38:37.875Z,43.65
2019-03-19T01:41:12.082Z,46.90
2019-03-19T01:43:46.542Z,49.33
2019-03-19T01:46:20.989Z,49.50
2019-03-19T01:48:55.348Z,48.85
2019-03-19T01:51:29.369Z,47.55
2019-03-19T01:54:03.300Z,48.08
2019-03-19T01:56:37.443Z,47.93
2019-03-19T01:59:11.702Z,47.40
2019-03-19T02:01:46.372Z,48.10
2019-03-19T02:04:20.569Z,47.17
2019-03-19T02:06:54.950Z,48.85
2019-03-19T02:09:29.109Z,48.42
2019-03-19T02:12:03.523Z,47.93
2019-03-19T02:14:37.567Z,49.42
2019-03-19T02:17:12.772Z,48.83
2019-03-19T02:19:47.128Z,49.70
2019-03-19T02:22:21.438Z,49.93
2019-03-19T02:24:56.405Z,49.13
2019-03-19T02:27:30.689Z,50.92
2019-03-19T02:30:05.080Z,50.33
2019-03-19T02:32:39.700Z,52.00
2019-03-19T02:35:13.901Z,51.50
2019-03-19T02:37:48.332Z,51.50
2019-03-19T02:40:22.718Z,51.37
2019-03-19T02:42:57.297Z,51.23
2019-03-19T02:45:31.446Z,52.50
2019-03-19T02:48:05.765Z,50.25
2019-03-19T02:50:39.807Z,52.78
2019-03-19T02:53:13.732Z,51.65
2019-03-19T02:55:47.731Z,52.13
2019-03-19T02:58:22.074Z,52.73
2019-03-19T03:00:56.204Z,52.75
2019-03-19T03:03:30.291Z,52.48
2019-03-19T03:06:04.516Z,52.13
2019-03-19T03:08:38.621Z,51.85
2019-03-19T03:11:12.744Z,54.20
2019-03-19T03:13:47.078Z,54.38
2019-03-19T03:16:21.310Z,52.58
2019-03-19T03:18:55.247Z,53.58
2019-03-19T03:21:29.038Z,54.58
2019-03-19T03:24:02.863Z,53.15
2019-03-19T03:26:47.784Z,53.15
2019-03-19T03:29:11.885Z,53.80
2019-03-19T03:31:45.914Z,52.78
2019-03-19T03:34:20.640Z,55.98
2019-03-19T03:36:54.990Z,62.03
2019-03-19T03:39:28.955Z,63.60
2019-03-19T03:42:03.557Z,67.50
2019-03-19T03:44:37.722Z,69.65
2019-03-19T03:47:12.278Z,66.22
2019-03-19T03:49:46.436Z,67.53
2019-03-19T03:52:20.690Z,67.32
2019-03-19T03:54:54.761Z,64.92
2019-03-19T03:57:29.140Z,65.80
2019-03-19T04:00:03.393Z,64.03
2019-03-19T04:02:37.928Z,62.50
2019-03-19T04:05:12.689Z,63.50
2019-03-19T04:07:47.062Z,62.13
2019-03-19T04:10:21.546Z,69.37
2019-03-19T04:12:55.718Z,70.08
2019-03-19T04:15:30.061Z,66.55
2019-03-19T04:18:04.173Z,67.35
2019-03-19T04:20:38.699Z,67.32
2019-03-19T04:23:12.900Z,65.28
2019-03-19T04:25:47.284Z,65.52
2019-03-19T04:28:21.340Z,64.12
2019-03-19T04:30:55.347Z,64.55
2019-03-19T04:33:29.530Z,63.98
2019-03-19T04:36:03.920Z,62.78
2019-03-19T04:38:38.165Z,62.45
2019-03-19T04:41:13.484Z,63.02
2019-03-19T04:43:47.711Z,63.48
2019-03-19T04:46:22.018Z,64.58
2019-03-19T04:48:56.252Z,62.23
2019-03-19T04:51:31.616Z,61.98
2019-03-19T04:54:06.984Z,63.38
2019-03-19T04:56:41.420Z,61.48
2019-03-19T04:59:15.597Z,60.20
2019-03-19T05:01:49.812Z,59.83
2019-03-19T05:04:23.974Z,72.03
2019-03-19T05:06:58.087Z,68.95
2019-03-19T05:09:32.549Z,67.15
2019-03-19T05:12:06.987Z,67.87
2019-03-19T05:14:42.540Z,66.67
2019-03-19T05:17:16.734Z,63.85
2019-03-19T05:19:51.280Z,63.28
2019-03-19T05:22:25.765Z,61.92
2019-03-19T05:24:59.887Z,60.23
2019-03-19T05:27:37.653Z,59.77
2019-03-19T05:30:10.879Z,58.02
2019-03-19T05:32:45.041Z,57.13
2019-03-19T05:35:19.080Z,55.73
2019-03-19T05:37:53.313Z,54.27
2019-03-19T05:40:27.507Z,51.73
2019-03-19T05:43:01.725Z,52.40
2019-03-19T05:45:35.786Z,51.13
2019-03-19T05:48:10.059Z,50.67
2019-03-19T05:50:44.415Z,50.58
2019-03-19T05:53:18.618Z,49.42
2019-03-19T05:55:52.987Z,47.70
2019-03-19T05:58:27.218Z,48.20
2019-03-19T06:01:01.707Z,47.40
2019-03-19T06:03:35.868Z,45.50
2019-03-19T06:06:10.114Z,46.83
2019-03-19T06:08:44.330Z,46.55
2019-03-19T06:11:18.967Z,46.18
2019-03-19T06:13:53.077Z,46.68
2019-03-19T06:16:27.492Z,47.15
2019-03-19T06:19:01.670Z,46.05
2019-03-19T06:21:36.292Z,46.83
2019-03-19T06:24:10.607Z,46.88
2019-03-19T06:26:44.914Z,45.28
2019-03-19T06:29:19.059Z,44.58
2019-03-19T06:31:53.520Z,43.85
2019-03-19T06:34:27.724Z,43.78
2019-03-19T06:37:02.261Z,42.58
2019-03-19T06:39:40.442Z,42.58
2019-03-19T06:42:14.856Z,41.70
2019-03-19T06:44:48.972Z,42.33
2019-03-19T06:47:23.222Z,42.03
2019-03-19T06:49:57.422Z,39.23
2019-03-19T06:52:31.657Z,40.63
2019-03-19T06:55:05.926Z,38.90
2019-03-19T06:57:39.908Z,39.63
2019-03-19T07:00:17.499Z,38.33
2019-03-19T07:02:51.476Z,37.85
2019-03-19T07:05:25.864Z,36.05
2019-03-19T07:08:00.099Z,35.52
2019-03-19T07:10:34.456Z,35.35
2019-03-19T07:13:08.655Z,33.98
2019-03-19T07:15:43.276Z,33.67
2019-03-19T07:18:17.511Z,33.28
2019-03-19T07:20:51.704Z,32.48
2019-03-19T07:23:25.690Z,31.90
2019-03-19T07:26:00.281Z,31.15
2019-03-19T07:28:34.366Z,31.48
2019-03-19T07:31:08.750Z,30.25
2019-03-19T07:33:42.983Z,29.90
2019-03-19T07:36:17.205Z,29.63
2019-03-19T07:38:51.392Z,28.90
2019-03-19T07:41:25.499Z,29.80
2019-03-19T07:43:59.681Z,29.77
2019-03-19T07:46:34.065Z,28.77
2019-03-19T07:49:08.247Z,29.82
2019-03-19T07:51:42.717Z,28.00
2019-03-19T07:54:16.825Z,27.20
2019-03-19T07:56:51.266Z,28.65
2019-03-19T07:59:25.318Z,28.00
2019-03-19T08:01:59.567Z,28.00
2019-03-19T08:04:33.735Z,26.80
2019-03-19T08:07:09.118Z,25.08
2019-03-19T08:09:43.734Z,24.67
2019-03-19T08:12:18.920Z,25.15
2019-03-19T08:14:53.050Z,25.88
2019-03-19T08:17:27.498Z,25.43
2019-03-19T08:20:02.049Z,24.45
2019-03-19T08:22:36.307Z,24.65
2019-03-19T08:25:11.759Z,23.95
2019-03-19T08:27:48.637Z,23.47
2019-03-19T08:30:25.324Z,23.07
2019-03-19T08:33:02.400Z,22.25
2019-03-19T08:35:39.182Z,23.45
2019-03-19T08:38:13.510Z,22.73
2019-03-19T08:40:50.996Z,22.82
2019-03-19T08:43:30.925Z,21.93
2019-03-19T08:46:06.966Z,21.37
2019-03-19T08:48:42.354Z,20.52
2019-03-19T08:51:17.412Z,20.40
2019-03-19T08:53:54.122Z,20.30
2019-03-19T08:56:32.791Z,20.35
2019-03-19T08:59:10.190Z,20.08
2019-03-19T09:01:44.667Z,19.62
2019-03-19T09:04:20.119Z,19.50
2019-03-19T09:06:55.286Z,18.87
2019-03-19T09:09:30.192Z,18.85
2019-03-19T09:12:04.479Z,19.32
2019-03-19T09:14:38.770Z,18.00
2019-03-19T09:17:14.324Z,18.55
2019-03-19T09:19:49.633Z,17.98
2019-03-19T09:22:29.576Z,18.37
2019-03-19T09:24:59.836Z,17.52
2019-03-19T09:27:34.243Z,16.93
2019-03-19T09:30:09.473Z,16.93
2019-03-19T09:32:43.659Z,17.17
2019-03-19T09:35:19.075Z,16.65
2019-03-19T09:37:58.386Z,16.93
2019-03-19T09:40:29.526Z,17.07
2019-03-19T09:43:03.442Z,16.95
2019-03-19T09:45:38.462Z,16.70
2019-03-19T09:48:12.470Z,16.32
2019-03-19T09:50:46.466Z,17.25
2019-03-19T09:53:20.620Z,16.62
2019-03-19T09:55:55.132Z,16.75
2019-03-19T09:58:29.496Z,17.00
2019-03-19T10:01:03.561Z,16.12
2019-03-19T10:03:37.821Z,15.60
2019-03-19T10:06:14.461Z,16.02
2019-03-19T10:08:49.052Z,16.37
2019-03-19T10:11:23.345Z,16.00
2019-03-19T10:13:57.495Z,15.23
2019-03-19T10:16:33.345Z,15.50
2019-03-19T10:19:07.638Z,14.95
2019-03-19T10:21:42.043Z,15.23
2019-03-19T10:24:16.067Z,15.03
2019-03-19T10:26:50.817Z,15.15
2019-03-19T10:29:24.825Z,14.55
2019-03-19T10:31:59.332Z,14.80
2019-03-19T10:34:33.459Z,14.55
2019-03-19T10:37:07.882Z,14.65
2019-03-19T10:39:42.142Z,14.23
2019-03-19T10:42:16.544Z,14.10
2019-03-19T10:44:50.916Z,13.60
2019-03-19T10:47:25.352Z,13.30
2019-03-19T10:49:59.636Z,12.88
2019-03-19T10:52:34.261Z,13.03
2019-03-19T10:55:09.104Z,13.18
2019-03-19T10:57:43.383Z,12.90
2019-03-19T11:00:20.391Z,13.25
2019-03-19T11:02:55.025Z,12.63
2019-03-19T11:05:29.197Z,12.55
2019-03-19T11:08:03.435Z,12.37
2019-03-19T11:10:37.735Z,12.50
2019-03-19T11:13:12.167Z,11.85
2019-03-19T11:15:46.562Z,12.25
2019-03-19T11:18:20.639Z,12.20
2019-03-19T11:21:03.725Z,12.13
2019-03-19T11:23:33.402Z,12.25
2019-03-19T11:26:07.814Z,12.58
2019-03-19T11:28:42.236Z,11.90
2019-03-19T11:31:16.510Z,10.98
2019-03-19T11:33:50.900Z,11.25
2019-03-19T11:36:25.064Z,10.90
2019-03-19T11:38:59.574Z,10.63
2019-03-19T11:41:33.753Z,11.18
2019-03-19T11:44:08.503Z,10.90
2019-03-19T11:46:42.837Z,10.60
2019-03-19T11:49:17.185Z,10.82
2019-03-19T11:51:52.449Z,10.75
2019-03-19T11:54:27.117Z,10.72
2019-03-19T11:57:01.313Z,9.88
2019-03-19T11:59:35.811Z,10.48
2019-03-19T12:02:10.317Z,10.03
2019-03-19T12:04:44.677Z,10.18
2019-03-19T12:07:18.910Z,10.25
2019-03-19T12:09:53.265Z,10.43
2019-03-19T12:12:27.855Z,10.10
2019-03-19T12:15:02.187Z,10.08
2019-03-19T12:17:36.424Z,10.48
2019-03-19T12:20:10.715Z,9.65
2019-03-19T12:22:45.456Z,10.15
2019-03-19T12:25:19.397Z,9.90
2019-03-19T12:27:53.767Z,10.13
2019-03-19T12:30:28.088Z,10.23
2019-03-19T12:33:02.440Z,9.53
2019-03-19T12:35:36.652Z,9.40
2019-03-19T12:38:11.013Z,9.58
2019-03-19T12:40:45.339Z,9.85
2019-03-19T12:43:19.738Z,9.00
2019-03-19T12:45:54.526Z,9.50
2019-03-19T12:48:28.731Z,9.30
2019-03-19T12:51:03.011Z,9.60
2019-03-19T12:53:37.471Z,9.03
2019-03-19T12:56:11.854Z,9.40
2019-03-19T12:58:46.285Z,9.15
2019-03-19T13:01:20.616Z,9.33
2019-03-19T13:03:54.659Z,9.43
2019-03-19T13:06:28.951Z,9.00
2019-03-19T13:09:03.298Z,8.80
2019-03-19T13:11:37.701Z,8.40
2019-03-19T13:14:12.193Z,8.35
2019-03-19T13:16:46.375Z,9.58
2019-03-19T13:19:20.688Z,14.73
2019-03-19T13:21:55.088Z,18.42
2019-03-19T13:24:29.234Z,21.80
2019-03-19T13:27:03.344Z,23.35
2019-03-19T13:29:37.304Z,24.00
2019-03-19T13:32:11.625Z,26.55
2019-03-19T13:34:46.085Z,29.27
2019-03-19T13:37:20.343Z,29.15
2019-03-19T13:39:54.573Z,29.67
2019-03-19T13:42:28.780Z,28.23
2019-03-19T13:45:03.036Z,26.85
2019-03-19T13:47:37.576Z,27.55
2019-03-19T13:50:11.707Z,27.77
2019-03-19T13:52:46.120Z,27.30
2019-03-19T13:55:20.672Z,27.62
2019-03-19T13:57:55.029Z,28.77
2019-03-19T14:00:29.109Z,27.52
2019-03-19T14:03:03.695Z,27.58
2019-03-19T14:05:37.916Z,26.93
2019-03-19T14:08:12.159Z,26.57
2019-03-19T14:10:46.453Z,26.82
2019-03-19T14:13:20.801Z,26.90
2019-03-19T14:15:55.107Z,26.65
2019-03-19T14:18:29.607Z,26.15
2019-03-19T14:21:03.756Z,26.15
2019-03-19T14:23:38.438Z,26.50
2019-03-19T14:26:12.941Z,25.52
2019-03-19T14:28:47.210Z,25.20
2019-03-19T14:31:21.609Z,25.88
2019-03-19T14:33:57.024Z,25.60
2019-03-19T14:39:53.531Z,25.45
2019-03-19T14:42:28.111Z,26.23
2019-03-19T14:45:03.381Z,25.70
2019-03-19T14:47:37.680Z,25.80
2019-03-19T14:50:13.051Z,25.70
2019-03-19T14:52:47.425Z,25.50
2019-03-19T14:55:23.027Z,26.27
2019-03-19T14:57:57.489Z,26.70
2019-03-19T15:00:31.893Z,26.87
2019-03-19T15:03:06.394Z,27.87
2019-03-19T15:05:40.632Z,25.75
2019-03-19T15:08:15.427Z,25.65
2019-03-19T15:10:49.790Z,26.37
2019-03-19T15:13:24.157Z,26.85
2019-03-19T15:15:58.672Z,26.48
2019-03-19T15:18:33.072Z,27.15
2019-03-19T15:21:07.444Z,28.52
2019-03-19T15:23:41.910Z,27.85
2019-03-19T15:26:16.197Z,26.62
2019-03-19T15:28:50.852Z,27.90
2019-03-19T15:31:29.833Z,28.05
2019-03-19T15:34:01.215Z,29.42
2019-03-19T15:36:35.613Z,29.50
2019-03-19T15:39:11.766Z,29.25
2019-03-19T15:41:46.043Z,30.02
2019-03-19T15:44:20.424Z,30.15
2019-03-19T15:46:54.755Z,31.37
2019-03-19T15:49:37.887Z,28.90
2019-03-19T15:52:04.978Z,31.95
2019-03-19T15:54:39.792Z,31.12
2019-03-19T15:57:14.395Z,28.50
2019-03-19T15:59:49.176Z,32.55
2019-03-19T16:02:25.413Z,31.37
2019-03-19T16:05:00.849Z,31.27
2019-03-19T16:07:35.682Z,32.90
2019-03-19T16:10:10.299Z,29.23
2019-03-19T16:12:44.658Z,30.90
2019-03-19T16:15:19.707Z,31.73
2019-03-19T16:17:53.977Z,32.20
2019-03-19T16:20:28.215Z,33.05
2019-03-19T16:23:02.364Z,30.80
2019-03-19T16:25:36.658Z,32.53
2019-03-19T16:28:11.107Z,31.25
2019-03-19T16:30:45.048Z,29.95
2019-03-19T16:33:19.567Z,29.90
2019-03-19T16:35:54.135Z,30.77
2019-03-19T16:38:28.621Z,31.07
2019-03-19T16:41:03.378Z,33.35
2019-03-19T16:43:37.399Z,31.62
2019-03-19T16:46:11.809Z,31.37
2019-03-19T16:48:46.262Z,35.90
2019-03-19T16:51:20.711Z,35.90
2019-03-19T16:53:55.210Z,36.00
2019-03-19T16:56:30.584Z,34.75
2019-03-19T16:59:04.666Z,31.62
2019-03-19T17:01:39.184Z,32.10
2019-03-19T17:04:13.555Z,33.05
2019-03-19T17:06:47.932Z,32.75
2019-03-19T17:09:22.425Z,32.45
2019-03-19T17:11:56.884Z,31.25
2019-03-19T17:14:31.326Z,31.57
2019-03-19T17:17:05.622Z,31.52
2019-03-19T17:19:40.047Z,31.65
2019-03-19T17:22:14.140Z,32.00
2019-03-19T17:24:48.740Z,31.82
2019-03-19T17:27:23.890Z,31.27
2019-03-19T17:29:58.363Z,32.28
2019-03-19T17:32:32.676Z,31.97
2019-03-19T17:35:10.524Z,30.50
2019-03-19T17:37:44.969Z,31.93
2019-03-19T17:40:19.356Z,32.48
2019-03-19T17:42:53.834Z,32.48
2019-03-19T17:45:28.147Z,32.33
2019-03-19T17:48:02.443Z,33.42
2019-03-19T17:50:36.808Z,31.73
2019-03-19T17:53:11.409Z,30.30
2019-03-19T17:55:45.412Z,30.50
2019-03-19T17:58:19.799Z,34.78
2019-03-19T18:00:54.400Z,34.83
2019-03-19T18:03:28.606Z,33.28
2019-03-19T18:06:03.023Z,35.63
2019-03-19T18:08:37.315Z,32.67
2019-03-19T18:11:11.375Z,33.05
2019-03-19T18:13:45.919Z,31.50
2019-03-19T18:16:20.139Z,32.08
2019-03-19T18:18:54.280Z,32.13
2019-03-19T18:21:28.572Z,32.85
2019-03-19T18:24:03.080Z,33.75
2019-03-19T18:26:37.379Z,31.75
2019-03-19T18:29:11.648Z,32.53
2019-03-19T18:31:45.903Z,31.75
2019-03-19T18:34:20.331Z,32.53
2019-03-19T18:36:54.451Z,33.80
2019-03-19T18:39:29.282Z,34.78
2019-03-19T18:42:03.608Z,39.20
2019-03-19T18:44:37.787Z,43.50
2019-03-19T18:47:12.262Z,46.18
2019-03-19T18:49:46.565Z,47.83
2019-03-19T18:52:20.671Z,49.13
2019-03-19T18:54:54.902Z,49.58
2019-03-19T18:57:29.431Z,48.23
2019-03-19T19:00:03.823Z,48.02
2019-03-19T19:02:48.725Z,48.70
2019-03-19T19:05:14.624Z,48.35
2019-03-19T19:07:49.152Z,47.58
2019-03-19T19:10:23.413Z,47.53
2019-03-19T19:12:57.512Z,47.30
2019-03-19T19:15:31.746Z,44.90
2019-03-19T19:18:06.042Z,44.18
2019-03-19T19:20:40.152Z,46.20
2019-03-19T19:23:14.642Z,44.80
2019-03-19T19:25:49.055Z,44.00
2019-03-19T19:28:23.231Z,44.10
2019-03-19T19:30:57.984Z,42.73
2019-03-19T19:33:32.258Z,44.27
2019-03-19T19:36:06.477Z,42.58
2019-03-19T19:38:40.689Z,43.15
2019-03-19T19:41:15.170Z,44.03
2019-03-19T19:43:49.585Z,43.45
2019-03-19T19:46:23.809Z,43.08
2019-03-19T19:48:58.469Z,44.13
2019-03-19T19:51:33.011Z,42.85
2019-03-19T19:54:07.586Z,43.00
2019-03-19T19:56:41.688Z,41.30
2019-03-19T19:59:15.763Z,43.83
2019-03-19T20:01:50.148Z,48.87
2019-03-19T20:04:24.299Z,56.45
2019-03-19T20:06:58.465Z,63.73
2019-03-19T20:09:32.643Z,65.17
2019-03-19T20:12:07.009Z,62.17
2019-03-19T20:14:41.462Z,58.13
2019-03-19T20:17:15.890Z,52.23
2019-03-19T20:19:50.310Z,51.75
2019-03-19T20:22:24.696Z,48.28
2019-03-19T20:24:59.399Z,46.25
2019-03-19T20:27:35.427Z,46.37
2019-03-19T20:30:11.660Z,46.20
2019-03-19T20:32:46.377Z,45.67
2019-03-19T20:35:39.515Z,44.53
2019-03-19T20:38:13.896Z,44.35
2019-03-19T20:40:49.096Z,45.03
2019-03-19T20:43:23.409Z,44.05
2019-03-19T20:45:57.516Z,46.55
2019-03-19T20:48:32.228Z,46.50
2019-03-19T20:51:07.022Z,46.77
2019-03-19T20:53:41.281Z,46.08
2019-03-19T20:56:15.760Z,46.98
2019-03-19T20:58:50.035Z,45.43
2019-03-19T21:01:24.132Z,45.35
2019-03-19T21:03:58.674Z,45.15
2019-03-19T21:06:32.584Z,43.65
2019-03-19T21:09:08.001Z,43.55
2019-03-19T21:11:42.283Z,42.73
2019-03-19T21:14:16.864Z,41.45
2019-03-19T21:16:51.113Z,42.50
2019-03-19T21:19:25.548Z,41.95
2019-03-19T21:22:00.692Z,40.38
2019-03-19T21:24:35.160Z,40.80
2019-03-19T21:27:09.234Z,40.73
2019-03-19T21:29:43.664Z,40.88
2019-03-19T21:32:18.285Z,39.05
2019-03-19T21:34:52.919Z,40.10
2019-03-19T21:37:27.684Z,40.85
2019-03-19T21:40:02.128Z,40.63
2019-03-19T21:42:36.363Z,41.18
2019-03-19T21:45:11.543Z,39.88
2019-03-19T21:47:47.089Z,41.02
2019-03-19T21:50:21.681Z,40.38
2019-03-19T21:52:55.956Z,40.95
2019-03-19T21:55:30.299Z,40.38
2019-03-19T21:58:04.957Z,40.17
2019-03-19T22:00:39.378Z,39.63
2019-03-19T22:03:13.570Z,39.50
2019-03-19T22:05:47.533Z,40.23
2019-03-19T22:08:21.791Z,39.20
2019-03-19T22:10:55.913Z,41.33
2019-03-19T22:13:30.089Z,43.38
2019-03-19T22:16:04.451Z,44.05
2019-03-19T22:18:38.579Z,47.20
2019-03-19T22:21:12.788Z,51.35
2019-03-19T22:23:47.352Z,53.25
2019-03-19T22:26:21.874Z,54.42
2019-03-19T22:28:56.245Z,55.52
2019-03-19T22:31:30.751Z,55.50
2019-03-19T22:34:13.686Z,54.60
2019-03-19T22:36:41.187Z,54.23
2019-03-19T22:39:15.375Z,52.27
2019-03-19T22:41:49.717Z,49.83
2019-03-19T22:44:24.049Z,48.28
2019-03-19T22:46:58.228Z,50.45
2019-03-19T22:49:32.258Z,47.48
2019-03-19T22:52:06.618Z,45.03
2019-03-19T22:54:40.845Z,42.58
2019-03-19T22:57:14.999Z,44.18
2019-03-19T22:59:49.354Z,44.30
2019-03-19T23:02:24.148Z,43.33
2019-03-19T23:04:58.383Z,42.10
2019-03-19T23:07:32.796Z,43.90
2019-03-19T23:10:07.569Z,42.10
2019-03-19T23:12:42.254Z,42.55
2019-03-19T23:15:16.772Z,41.20
2019-03-19T23:17:51.438Z,41.05
2019-03-19T23:20:25.681Z,41.58
2019-03-19T23:22:59.975Z,39.98
2019-03-19T23:25:34.181Z,41.20
2019-03-19T23:28:08.436Z,41.58
2019-03-19T23:30:43.012Z,41.90
2019-03-19T23:33:17.538Z,42.73
2019-03-19T23:35:51.793Z,43.28
2019-03-19T23:38:26.185Z,43.13
2019-03-19T23:41:00.421Z,43.40
2019-03-19T23:43:34.865Z,43.70
2019-03-19T23:46:09.121Z,42.88
2019-03-19T23:48:43.234Z,43.13
2019-03-19T23:51:17.479Z,43.63
2019-03-19T23:53:51.727Z,42.05
2019-03-19T23:56:26.095Z,41.85
2019-03-19T23:59:00.655Z,43.48
